sensor_id;sensor_type;location;lat;lon;timestamp;pressure;altitude;pressure_sealevel;temperature;humidity
29197;BME280;62796;42.654;23.316;2023-02-02T00:01:47;94619.41;;;7.58;35.42
29197;BME280;62796;42.654;23.316;2023-02-02T00:04:25;94618.50;;;7.61;35.38
29197;BME280;62796;42.654;23.316;2023-02-02T00:06:51;94627.06;;;7.63;35.16
29197;BME280;62796;42.654;23.316;2023-02-02T00:09:19;94614.34;;;7.56;35.10
29197;BME280;62796;42.654;23.316;2023-02-02T00:11:46;94615.41;;;7.59;35.10
29197;BME280;62796;42.654;23.316;2023-02-02T00:14:12;94608.66;;;7.69;34.96
29197;BME280;62796;42.654;23.316;2023-02-02T00:16:39;94608.19;;;7.70;35.17
29197;BME280;62796;42.654;23.316;2023-02-02T00:19:10;94610.78;;;7.74;35.00
29197;BME280;62796;42.654;23.316;2023-02-02T00:21:36;94608.66;;;7.69;34.97
29197;BME280;62796;42.654;23.316;2023-02-02T00:24:03;94614.19;;;7.60;35.29
29197;BME280;62796;42.654;23.316;2023-02-02T00:26:29;94610.25;;;7.52;35.71
29197;BME280;62796;42.654;23.316;2023-02-02T00:28:54;94612.09;;;7.46;35.66
29197;BME280;62796;42.654;23.316;2023-02-02T00:31:20;94613.19;;;7.39;35.98
29197;BME280;62796;42.654;23.316;2023-02-02T00:33:47;94619.47;;;7.40;36.18
29197;BME280;62796;42.654;23.316;2023-02-02T00:36:13;94616.56;;;7.34;36.44
29197;BME280;62796;42.654;23.316;2023-02-02T00:38:38;94624.69;;;7.29;37.07
29197;BME280;62796;42.654;23.316;2023-02-02T00:41:04;94625.44;;;7.29;36.95
29197;BME280;62796;42.654;23.316;2023-02-02T00:43:30;94622.09;;;7.16;37.53
29197;BME280;62796;42.654;23.316;2023-02-02T00:45:55;94638.31;;;7.05;38.33
29197;BME280;62796;42.654;23.316;2023-02-02T00:48:21;94628.06;;;6.69;39.24
29197;BME280;62796;42.654;23.316;2023-02-02T00:50:46;94633.91;;;6.80;38.93
29197;BME280;62796;42.654;23.316;2023-02-02T00:53:12;94626.56;;;6.86;38.87
29197;BME280;62796;42.654;23.316;2023-02-02T00:55:37;94636.03;;;7.03;38.31
29197;BME280;62796;42.654;23.316;2023-02-02T00:58:03;94629.59;;;7.06;39.10
29197;BME280;62796;42.654;23.316;2023-02-02T01:00:28;94625.94;;;7.00;39.82
29197;BME280;62796;42.654;23.316;2023-02-02T01:02:54;94623.97;;;7.01;39.84
29197;BME280;62796;42.654;23.316;2023-02-02T01:05:20;94615.84;;;7.06;39.66
29197;BME280;62796;42.654;23.316;2023-02-02T01:07:46;94607.56;;;7.06;39.67
29197;BME280;62796;42.654;23.316;2023-02-02T01:10:14;94613.06;;;7.15;39.70
29197;BME280;62796;42.654;23.316;2023-02-02T01:12:40;94609.41;;;7.18;39.42
29197;BME280;62796;42.654;23.316;2023-02-02T01:15:07;94593.63;;;7.19;39.30
29197;BME280;62796;42.654;23.316;2023-02-02T01:17:33;94594.53;;;7.34;39.12
29197;BME280;62796;42.654;23.316;2023-02-02T01:19:58;94589.47;;;7.33;38.84
29197;BME280;62796;42.654;23.316;2023-02-02T01:22:24;94599.53;;;7.45;38.80
29197;BME280;62796;42.654;23.316;2023-02-02T01:24:50;94593.09;;;7.48;38.60
29197;BME280;62796;42.654;23.316;2023-02-02T01:27:15;94602.59;;;7.47;38.74
29197;BME280;62796;42.654;23.316;2023-02-02T01:29:41;94599.88;;;7.38;38.73
29197;BME280;62796;42.654;23.316;2023-02-02T01:32:06;94595.47;;;7.31;38.90
29197;BME280;62796;42.654;23.316;2023-02-02T01:34:32;94591.44;;;7.32;38.77
29197;BME280;62796;42.654;23.316;2023-02-02T01:36:57;94583.38;;;7.29;38.79
29197;BME280;62796;42.654;23.316;2023-02-02T01:39:23;94590.41;;;7.20;39.10
29197;BME280;62796;42.654;23.316;2023-02-02T01:41:48;94579.72;;;7.13;39.21
29197;BME280;62796;42.654;23.316;2023-02-02T01:47:19;94571.81;;;6.70;39.98
29197;BME280;62796;42.654;23.316;2023-02-02T01:49:45;94569.19;;;6.48;40.65
29197;BME280;62796;42.654;23.316;2023-02-02T01:52:12;94573.63;;;6.46;40.68
29197;BME280;62796;42.654;23.316;2023-02-02T01:54:51;94548.44;;;6.47;40.32
29197;BME280;62796;42.654;23.316;2023-02-02T01:59:48;94560.63;;;6.10;40.81
29197;BME280;62796;42.654;23.316;2023-02-02T02:02:14;94563.38;;;6.19;40.52
29197;BME280;62796;42.654;23.316;2023-02-02T02:04:40;94554.06;;;6.35;40.35
29197;BME280;62796;42.654;23.316;2023-02-02T02:07:06;94546.03;;;5.82;41.31
29197;BME280;62796;42.654;23.316;2023-02-02T02:09:33;94551.91;;;6.02;41.54
29197;BME280;62796;42.654;23.316;2023-02-02T02:11:58;94550.06;;;5.99;41.41
29197;BME280;62796;42.654;23.316;2023-02-02T02:14:24;94545.16;;;6.03;41.17
29197;BME280;62796;42.654;23.316;2023-02-02T02:20:26;94551.03;;;6.33;40.69
29197;BME280;62796;42.654;23.316;2023-02-02T02:29:30;94559.44;;;6.29;41.50
29197;BME280;62796;42.654;23.316;2023-02-02T02:42:26;94548.28;;;6.24;40.81
29197;BME280;62796;42.654;23.316;2023-02-02T02:44:54;94561.41;;;6.29;40.97
29197;BME280;62796;42.654;23.316;2023-02-02T02:47:21;94564.00;;;6.23;40.50
29197;BME280;62796;42.654;23.316;2023-02-02T02:49:48;94558.66;;;6.20;41.48
29197;BME280;62796;42.654;23.316;2023-02-02T02:52:14;94553.16;;;6.20;41.38
29197;BME280;62796;42.654;23.316;2023-02-02T03:03:24;94557.09;;;6.19;41.52
29197;BME280;62796;42.654;23.316;2023-02-02T03:06:11;94549.47;;;6.13;41.04
29197;BME280;62796;42.654;23.316;2023-02-02T03:08:52;94554.19;;;6.13;40.46
29197;BME280;62796;42.654;23.316;2023-02-02T03:11:19;94547.78;;;6.16;40.68
29197;BME280;62796;42.654;23.316;2023-02-02T03:13:45;94547.03;;;6.16;40.72
29197;BME280;62796;42.654;23.316;2023-02-02T03:16:11;94533.88;;;6.01;40.75
29197;BME280;62796;42.654;23.316;2023-02-02T03:18:37;94548.56;;;6.17;40.66
29197;BME280;62796;42.654;23.316;2023-02-02T03:21:02;94546.72;;;6.23;40.25
29197;BME280;62796;42.654;23.316;2023-02-02T03:23:28;94543.34;;;6.19;40.25
29197;BME280;62796;42.654;23.316;2023-02-02T03:25:54;94550.69;;;6.22;39.23
29197;BME280;62796;42.654;23.316;2023-02-02T03:28:21;94532.69;;;6.21;39.69
29197;BME280;62796;42.654;23.316;2023-02-02T03:30:47;94534.81;;;6.26;39.90
29197;BME280;62796;42.654;23.316;2023-02-02T03:33:14;94537.13;;;6.27;38.79
29197;BME280;62796;42.654;23.316;2023-02-02T03:35:40;94543.22;;;6.31;39.83
29197;BME280;62796;42.654;23.316;2023-02-02T03:38:05;94521.69;;;6.21;40.31
29197;BME280;62796;42.654;23.316;2023-02-02T03:40:31;94529.63;;;6.28;38.78
29197;BME280;62796;42.654;23.316;2023-02-02T03:42:56;94553.47;;;6.40;38.51
29197;BME280;62796;42.654;23.316;2023-02-02T03:45:22;94543.06;;;6.44;38.43
29197;BME280;62796;42.654;23.316;2023-02-02T03:47:50;94547.81;;;6.52;38.70
29197;BME280;62796;42.654;23.316;2023-02-02T03:50:16;94548.72;;;6.58;39.50
29197;BME280;62796;42.654;23.316;2023-02-02T03:52:41;94551.19;;;6.65;39.72
29197;BME280;62796;42.654;23.316;2023-02-02T03:55:07;94545.34;;;6.73;39.71
29197;BME280;62796;42.654;23.316;2023-02-02T03:57:33;94541.53;;;6.70;39.54
29197;BME280;62796;42.654;23.316;2023-02-02T03:59:58;94548.09;;;6.63;38.36
29197;BME280;62796;42.654;23.316;2023-02-02T04:02:23;94538.78;;;6.61;37.42
29197;BME280;62796;42.654;23.316;2023-02-02T04:04:49;94557.47;;;6.57;37.09
29197;BME280;62796;42.654;23.316;2023-02-02T04:07:14;94567.22;;;6.58;37.24
29197;BME280;62796;42.654;23.316;2023-02-02T04:09:40;94572.28;;;6.59;38.56
29197;BME280;62796;42.654;23.316;2023-02-02T04:12:05;94580.06;;;6.70;39.39
29197;BME280;62796;42.654;23.316;2023-02-02T04:14:31;94556.84;;;6.62;39.99
29197;BME280;62796;42.654;23.316;2023-02-02T04:16:56;94567.84;;;6.62;40.92
29197;BME280;62796;42.654;23.316;2023-02-02T04:19:22;94572.56;;;6.61;41.48
29197;BME280;62796;42.654;23.316;2023-02-02T04:21:47;94573.03;;;6.69;41.69
29197;BME280;62796;42.654;23.316;2023-02-02T04:24:13;94577.31;;;6.70;41.47
29197;BME280;62796;42.654;23.316;2023-02-02T04:26:39;94584.03;;;6.69;41.54
29197;BME280;62796;42.654;23.316;2023-02-02T04:29:05;94581.59;;;6.62;42.07
29197;BME280;62796;42.654;23.316;2023-02-02T04:31:30;94584.34;;;6.62;41.88
29197;BME280;62796;42.654;23.316;2023-02-02T04:33:56;94575.19;;;6.56;42.27
29197;BME280;62796;42.654;23.316;2023-02-02T04:36:22;94574.25;;;6.41;42.35
29197;BME280;62796;42.654;23.316;2023-02-02T04:38:48;94567.22;;;6.40;42.55
29197;BME280;62796;42.654;23.316;2023-02-02T04:41:14;94562.97;;;6.39;42.60
29197;BME280;62796;42.654;23.316;2023-02-02T04:43:40;94564.31;;;6.34;42.63
29197;BME280;62796;42.654;23.316;2023-02-02T04:46:05;94582.03;;;6.42;42.61
29197;BME280;62796;42.654;23.316;2023-02-02T04:48:31;94586.03;;;6.32;42.29
29197;BME280;62796;42.654;23.316;2023-02-02T04:51:01;94556.19;;;6.12;40.78
29197;BME280;62796;42.654;23.316;2023-02-02T04:53:27;94581.13;;;6.27;40.17
29197;BME280;62796;42.654;23.316;2023-02-02T04:55:53;94565.69;;;6.21;40.03
29197;BME280;62796;42.654;23.316;2023-02-02T04:58:18;94576.69;;;6.21;39.48
29197;BME280;62796;42.654;23.316;2023-02-02T05:00:44;94578.81;;;6.26;39.34
29197;BME280;62796;42.654;23.316;2023-02-02T05:03:09;94575.44;;;6.22;39.18
29197;BME280;62796;42.654;23.316;2023-02-02T05:05:35;94581.56;;;6.17;38.58
29197;BME280;62796;42.654;23.316;2023-02-02T05:08:00;94578.19;;;6.22;39.11
29197;BME280;62796;42.654;23.316;2023-02-02T05:10:25;94591.38;;;6.27;41.06
29197;BME280;62796;42.654;23.316;2023-02-02T05:12:52;94583.72;;;6.31;41.88
29197;BME280;62796;42.654;23.316;2023-02-02T05:15:18;94573.78;;;6.33;42.36
29197;BME280;62796;42.654;23.316;2023-02-02T05:17:45;94579.44;;;6.30;42.03
29197;BME280;62796;42.654;23.316;2023-02-02T05:20:11;94578.81;;;6.26;40.22
29197;BME280;62796;42.654;23.316;2023-02-02T05:22:36;94576.06;;;6.17;39.87
29197;BME280;62796;42.654;23.316;2023-02-02T05:25:03;94557.41;;;6.11;39.34
29197;BME280;62796;42.654;23.316;2023-02-02T05:27:29;94566.25;;;6.06;38.15
29197;BME280;62796;42.654;23.316;2023-02-02T05:29:54;94572.38;;;6.01;38.52
29197;BME280;62796;42.654;23.316;2023-02-02T05:32:20;94565.72;;;5.81;37.05
29197;BME280;62796;42.654;23.316;2023-02-02T05:34:45;94572.41;;;5.80;37.25
29197;BME280;62796;42.654;23.316;2023-02-02T05:37:10;94563.16;;;5.55;36.71
29197;BME280;62796;42.654;23.316;2023-02-02T05:39:36;94566.69;;;5.56;37.11
29197;BME280;62796;42.654;23.316;2023-02-02T05:42:01;94577.69;;;5.56;37.16
29197;BME280;62796;42.654;23.316;2023-02-02T05:44:27;94593.47;;;5.74;37.09
29197;BME280;62796;42.654;23.316;2023-02-02T05:46:52;94592.22;;;5.96;38.31
29197;BME280;62796;42.654;23.316;2023-02-02T05:49:17;94586.75;;;6.05;40.03
29197;BME280;62796;42.654;23.316;2023-02-02T05:51:47;94578.50;;;6.15;39.89
29197;BME280;62796;42.654;23.316;2023-02-02T05:54:13;94583.41;;;6.29;40.24
29197;BME280;62796;42.654;23.316;2023-02-02T05:56:44;94582.72;;;5.97;38.88
29197;BME280;62796;42.654;23.316;2023-02-02T05:59:09;94576.19;;;6.04;37.70
29197;BME280;62796;42.654;23.316;2023-02-02T06:01:35;94571.00;;;6.06;36.97
29197;BME280;62796;42.654;23.316;2023-02-02T06:04:00;94583.09;;;6.18;36.49
29197;BME280;62796;42.654;23.316;2023-02-02T06:06:25;94577.28;;;6.16;36.14
29197;BME280;62796;42.654;23.316;2023-02-02T06:08:51;94591.66;;;6.29;36.07
29197;BME280;62796;42.654;23.316;2023-02-02T06:11:17;94587.84;;;6.35;35.81
29197;BME280;62796;42.654;23.316;2023-02-02T06:13:43;94599.19;;;6.55;36.75
29197;BME280;62796;42.654;23.316;2023-02-02T06:16:09;94588.47;;;6.39;39.33
29197;BME280;62796;42.654;23.316;2023-02-02T06:18:35;94597.50;;;6.49;40.13
29197;BME280;62796;42.654;23.316;2023-02-02T06:21:02;94604.25;;;6.57;40.12
29197;BME280;62796;42.654;23.316;2023-02-02T06:23:30;94617.84;;;6.69;39.39
29197;BME280;62796;42.654;23.316;2023-02-02T06:25:56;94612.03;;;6.77;39.53
29197;BME280;62796;42.654;23.316;2023-02-02T06:28:21;94622.28;;;6.85;39.43
29197;BME280;62796;42.654;23.316;2023-02-02T06:30:47;94626.41;;;6.90;39.34
29197;BME280;62796;42.654;23.316;2023-02-02T06:33:12;94627.16;;;6.90;39.71
29197;BME280;62796;42.654;23.316;2023-02-02T06:35:37;94629.31;;;6.86;39.97
29197;BME280;62796;42.654;23.316;2023-02-02T06:38:03;94625.03;;;6.76;40.11
29197;BME280;62796;42.654;23.316;2023-02-02T06:40:29;94630.22;;;6.74;40.72
29197;BME280;62796;42.654;23.316;2023-02-02T06:42:59;94653.75;;;6.75;40.99
29197;BME280;62796;42.654;23.316;2023-02-02T06:45:25;94636.81;;;6.67;41.71
29197;BME280;62796;42.654;23.316;2023-02-02T06:47:51;94650.09;;;6.69;41.53
29197;BME280;62796;42.654;23.316;2023-02-02T06:50:17;94638.47;;;6.65;42.23
29197;BME280;62796;42.654;23.316;2023-02-02T06:52:49;94632.97;;;6.65;42.46
29197;BME280;62796;42.654;23.316;2023-02-02T06:55:16;94625.00;;;6.49;42.91
29197;BME280;62796;42.654;23.316;2023-02-02T06:57:41;94638.75;;;6.49;42.39
29197;BME280;62796;42.654;23.316;2023-02-02T07:00:07;94629.41;;;6.37;42.84
29197;BME280;62796;42.654;23.316;2023-02-02T07:02:33;94645.78;;;6.41;41.99
29197;BME280;62796;42.654;23.316;2023-02-02T07:04:59;94651.91;;;6.45;42.22
29197;BME280;62796;42.654;23.316;2023-02-02T07:07:25;94650.50;;;6.40;42.33
29197;BME280;62796;42.654;23.316;2023-02-02T07:09:50;94648.25;;;6.48;42.00
29197;BME280;62796;42.654;23.316;2023-02-02T07:12:16;94640.28;;;6.41;41.92
29197;BME280;62796;42.654;23.316;2023-02-02T07:14:43;94641.84;;;6.60;39.42
29197;BME280;62796;42.654;23.316;2023-02-02T07:17:09;94636.94;;;6.64;38.68
29197;BME280;62796;42.654;23.316;2023-02-02T07:19:35;94630.38;;;6.71;37.99
29197;BME280;62796;42.654;23.316;2023-02-02T07:22:00;94645.81;;;6.59;37.96
29197;BME280;62796;42.654;23.316;2023-02-02T07:24:26;94636.66;;;6.71;37.36
29197;BME280;62796;42.654;23.316;2023-02-02T07:26:52;94653.31;;;6.86;37.20
29197;BME280;62796;42.654;23.316;2023-02-02T07:29:17;94631.16;;;6.89;37.45
29197;BME280;62796;42.654;23.316;2023-02-02T07:31:42;94651.94;;;6.99;37.06
29197;BME280;62796;42.654;23.316;2023-02-02T07:34:08;94659.88;;;6.61;37.69
29197;BME280;62796;42.654;23.316;2023-02-02T07:36:34;94647.69;;;6.89;37.39
29197;BME280;62796;42.654;23.316;2023-02-02T07:39:00;94651.78;;;7.03;37.39
29197;BME280;62796;42.654;23.316;2023-02-02T07:41:29;94668.78;;;6.92;37.19
29197;BME280;62796;42.654;23.316;2023-02-02T07:43:54;94660.97;;;6.91;37.52
29197;BME280;62796;42.654;23.316;2023-02-02T07:46:20;94639.50;;;6.40;37.80
29197;BME280;62796;42.654;23.316;2023-02-02T07:48:45;94637.25;;;6.57;38.37
29197;BME280;62796;42.654;23.316;2023-02-02T07:51:14;94638.66;;;6.89;37.57
29197;BME280;62796;42.654;23.316;2023-02-02T07:53:44;94640.00;;;7.20;37.19
29197;BME280;62796;42.654;23.316;2023-02-02T07:56:12;94624.03;;;7.43;36.66
29197;BME280;62796;42.654;23.316;2023-02-02T07:58:38;94624.03;;;7.52;36.33
29197;BME280;62796;42.654;23.316;2023-02-02T08:01:06;94623.66;;;7.68;36.16
29197;BME280;62796;42.654;23.316;2023-02-02T08:03:32;94629.72;;;7.90;35.82
29197;BME280;62796;42.654;23.316;2023-02-02T08:05:58;94605.19;;;7.92;36.03
29197;BME280;62796;42.654;23.316;2023-02-02T08:08:24;94618.25;;;8.15;35.35
29197;BME280;62796;42.654;23.316;2023-02-02T08:10:51;94622.41;;;7.78;36.07
29197;BME280;62796;42.654;23.316;2023-02-02T08:13:16;94605.69;;;8.14;36.04
29197;BME280;62796;42.654;23.316;2023-02-02T08:15:42;94602.63;;;8.69;34.87
29197;BME280;62796;42.654;23.316;2023-02-02T08:18:07;94609.66;;;9.08;34.64
29197;BME280;62796;42.654;23.316;2023-02-02T08:20:33;94597.78;;;9.46;33.89
29197;BME280;62796;42.654;23.316;2023-02-02T08:22:58;94592.53;;;9.63;33.69
29197;BME280;62796;42.654;23.316;2023-02-02T08:25:24;94604.72;;;10.00;32.97
29197;BME280;62796;42.654;23.316;2023-02-02T08:27:53;94608.16;;;9.80;32.81
29197;BME280;62796;42.654;23.316;2023-02-02T08:30:19;94605.47;;;9.86;32.87
29197;BME280;62796;42.654;23.316;2023-02-02T08:32:44;94597.50;;;9.73;33.25
29197;BME280;62796;42.654;23.316;2023-02-02T08:35:10;94585.50;;;10.11;32.86
29197;BME280;62796;42.654;23.316;2023-02-02T08:37:35;94588.91;;;10.35;32.23
29197;BME280;62796;42.654;23.316;2023-02-02T08:40:01;94604.41;;;10.47;32.49
29197;BME280;62796;42.654;23.316;2023-02-02T08:42:27;94599.97;;;10.55;33.82
29197;BME280;62796;42.654;23.316;2023-02-02T08:44:52;94597.22;;;10.55;34.08
29197;BME280;62796;42.654;23.316;2023-02-02T08:47:17;94588.84;;;10.50;34.20
29197;BME280;62796;42.654;23.316;2023-02-02T08:49:43;94591.25;;;10.42;34.69
29197;BME280;62796;42.654;23.316;2023-02-02T08:52:09;94583.91;;;10.39;34.31
29197;BME280;62796;42.654;23.316;2023-02-02T08:54:34;94580.97;;;10.28;34.80
29197;BME280;62796;42.654;23.316;2023-02-02T08:57:00;94580.78;;;10.32;34.77
29197;BME280;62796;42.654;23.316;2023-02-02T08:59:25;94560.97;;;10.04;35.16
29197;BME280;62796;42.654;23.316;2023-02-02T09:01:51;94578.72;;;10.12;35.17
29197;BME280;62796;42.654;23.316;2023-02-02T09:04:16;94584.50;;;9.94;35.80
29197;BME280;62796;42.654;23.316;2023-02-02T09:06:42;94581.84;;;9.85;35.72
29197;BME280;62796;42.654;23.316;2023-02-02T09:09:11;94593.38;;;9.69;36.26
29197;BME280;62796;42.654;23.316;2023-02-02T09:11:37;94600.66;;;9.66;36.48
29197;BME280;62796;42.654;23.316;2023-02-02T09:14:03;94588.53;;;9.64;36.53
29197;BME280;62796;42.654;23.316;2023-02-02T09:16:31;94575.97;;;9.48;37.15
29197;BME280;62796;42.654;23.316;2023-02-02T09:18:57;94586.44;;;9.44;37.34
29197;BME280;62796;42.654;23.316;2023-02-02T09:21:23;94591.78;;;9.33;37.49
29197;BME280;62796;42.654;23.316;2023-02-02T09:23:50;94580.53;;;9.22;37.99
29197;BME280;62796;42.654;23.316;2023-02-02T09:26:23;94582.53;;;9.21;37.97
29197;BME280;62796;42.654;23.316;2023-02-02T09:28:55;94587.97;;;9.16;38.00
29197;BME280;62796;42.654;23.316;2023-02-02T09:31:21;94593.06;;;9.08;38.48
29197;BME280;62796;42.654;23.316;2023-02-02T09:33:47;94575.75;;;9.08;38.26
29197;BME280;62796;42.654;23.316;2023-02-02T09:36:14;94580.13;;;9.14;38.39
29197;BME280;62796;42.654;23.316;2023-02-02T09:38:41;94571.28;;;9.10;37.95
29197;BME280;62796;42.654;23.316;2023-02-02T09:46:38;94548.97;;;9.58;37.03
29197;BME280;62796;42.654;23.316;2023-02-02T09:49:08;94559.28;;;9.92;36.81
29197;BME280;62796;42.654;23.316;2023-02-02T09:51:43;94567.66;;;10.12;36.87
29197;BME280;62796;42.654;23.316;2023-02-02T09:54:20;94548.81;;;10.71;35.36
29197;BME280;62796;42.654;23.316;2023-02-02T09:56:51;94555.75;;;11.33;34.33
29197;BME280;62796;42.654;23.316;2023-02-02T09:59:36;94546.91;;;11.86;33.42
29197;BME280;62796;42.654;23.316;2023-02-02T10:02:16;94548.34;;;12.55;32.56
29197;BME280;62796;42.654;23.316;2023-02-02T10:04:46;94538.16;;;13.05;31.12
29197;BME280;62796;42.654;23.316;2023-02-02T10:07:50;94525.41;;;13.52;30.15
29197;BME280;62796;42.654;23.316;2023-02-02T10:10:42;94518.31;;;13.51;30.58
29197;BME280;62796;42.654;23.316;2023-02-02T10:13:22;94521.88;;;13.79;29.14
29197;BME280;62796;42.654;23.316;2023-02-02T10:18:26;94509.66;;;14.27;28.19
29197;BME280;62796;42.654;23.316;2023-02-02T10:21:03;94511.97;;;14.91;27.67
29197;BME280;62796;42.654;23.316;2023-02-02T10:23:40;94504.84;;;14.11;25.83
29197;BME280;62796;42.654;23.316;2023-02-02T10:26:32;94512.47;;;13.94;26.42
29197;BME280;62796;42.654;23.316;2023-02-02T10:29:22;94487.97;;;14.77;25.50
29197;BME280;62796;42.654;23.316;2023-02-02T10:32:13;94494.63;;;15.50;24.49
29197;BME280;62796;42.654;23.316;2023-02-02T10:46:02;94469.41;;;13.00;27.18
29197;BME280;62796;42.654;23.316;2023-02-02T10:48:32;94456.16;;;12.51;28.03
29197;BME280;62796;42.654;23.316;2023-02-02T10:51:11;94453.97;;;12.77;27.63
29197;BME280;62796;42.654;23.316;2023-02-02T10:53:44;94449.34;;;12.57;27.87
29197;BME280;62796;42.654;23.316;2023-02-02T10:56:17;94435.59;;;12.26;28.08
29197;BME280;62796;42.654;23.316;2023-02-02T11:01:21;94427.03;;;11.76;28.77
29197;BME280;62796;42.654;23.316;2023-02-02T11:03:47;94423.06;;;11.88;28.54
29197;BME280;62796;42.654;23.316;2023-02-02T11:06:14;94438.97;;;11.88;28.72
29197;BME280;62796;42.654;23.316;2023-02-02T11:08:58;94436.75;;;11.97;27.90
29197;BME280;62796;42.654;23.316;2023-02-02T11:11:50;94417.31;;;11.97;28.51
29197;BME280;62796;42.654;23.316;2023-02-02T11:14:29;94417.38;;;12.14;27.71
29197;BME280;62796;42.654;23.316;2023-02-02T11:17:03;94417.72;;;11.79;28.00
29197;BME280;62796;42.654;23.316;2023-02-02T11:19:31;94417.34;;;12.08;27.96
29197;BME280;62796;42.654;23.316;2023-02-02T11:22:01;94404.19;;;11.98;27.97
29197;BME280;62796;42.654;23.316;2023-02-02T11:24:39;94400.91;;;11.99;27.35
29197;BME280;62796;42.654;23.316;2023-02-02T11:27:32;94409.06;;;12.14;27.09
29197;BME280;62796;42.654;23.316;2023-02-02T11:30:25;94416.47;;;11.86;27.68
29197;BME280;62796;42.654;23.316;2023-02-02T11:32:51;94398.84;;;11.46;28.47
29197;BME280;62796;42.654;23.316;2023-02-02T11:35:27;94374.13;;;11.91;27.90
29197;BME280;62796;42.654;23.316;2023-02-02T11:38:08;94391.16;;;12.15;27.35
29197;BME280;62796;42.654;23.316;2023-02-02T11:40:41;94383.22;;;11.91;27.77
29197;BME280;62796;42.654;23.316;2023-02-02T11:43:18;94387.38;;;12.18;27.80
29197;BME280;62796;42.654;23.316;2023-02-02T11:45:45;94377.84;;;12.41;27.46
29197;BME280;62796;42.654;23.316;2023-02-02T11:48:19;94414.16;;;12.27;27.36
29197;BME280;62796;42.654;23.316;2023-02-02T11:50:55;94387.00;;;12.75;27.54
29197;BME280;62796;42.654;23.316;2023-02-02T11:56:22;94370.56;;;13.60;25.80
29197;BME280;62796;42.654;23.316;2023-02-02T11:58:54;94361.16;;;12.36;27.10
29197;BME280;62796;42.654;23.316;2023-02-02T12:03:48;94358.63;;;12.21;28.07
29197;BME280;62796;42.654;23.316;2023-02-02T12:06:22;94371.81;;;12.54;27.10
29197;BME280;62796;42.654;23.316;2023-02-02T12:08:48;94345.22;;;12.25;26.64
29197;BME280;62796;42.654;23.316;2023-02-02T12:16:48;94354.38;;;12.53;27.50
29197;BME280;62796;42.654;23.316;2023-02-02T12:32:26;94358.25;;;11.49;30.23
29197;BME280;62796;42.654;23.316;2023-02-02T12:40:42;94361.25;;;11.88;27.92
29197;BME280;62796;42.654;23.316;2023-02-02T12:43:41;94358.72;;;11.90;27.35
29197;BME280;62796;42.654;23.316;2023-02-02T12:48:51;94357.81;;;11.61;27.56
29197;BME280;62796;42.654;23.316;2023-02-02T13:02:03;94369.50;;;11.34;29.00
29197;BME280;62796;42.654;23.316;2023-02-02T13:10:44;94360.41;;;11.28;29.37
29197;BME280;62796;42.654;23.316;2023-02-02T13:13:17;94363.22;;;11.39;29.03
29197;BME280;62796;42.654;23.316;2023-02-02T13:15:51;94357.75;;;11.50;28.83
29197;BME280;62796;42.654;23.316;2023-02-02T13:18:23;94365.78;;;11.80;28.26
29197;BME280;62796;42.654;23.316;2023-02-02T13:20:53;94354.78;;;11.65;28.33
29197;BME280;62796;42.654;23.316;2023-02-02T13:23:27;94363.31;;;11.56;28.16
29197;BME280;62796;42.654;23.316;2023-02-02T13:25:59;94355.50;;;11.54;28.72
29197;BME280;62796;42.654;23.316;2023-02-02T13:28:40;94347.16;;;11.12;28.40
29197;BME280;62796;42.654;23.316;2023-02-02T13:31:14;94353.84;;;10.94;28.20
29197;BME280;62796;42.654;23.316;2023-02-02T13:33:43;94349.97;;;10.81;28.91
29197;BME280;62796;42.654;23.316;2023-02-02T13:36:20;94344.47;;;10.29;29.47
29197;BME280;62796;42.654;23.316;2023-02-02T13:38:58;94352.81;;;10.61;29.28
29197;BME280;62796;42.654;23.316;2023-02-02T13:41:26;94357.91;;;10.68;29.37
29197;BME280;62796;42.654;23.316;2023-02-02T13:44:00;94351.66;;;10.73;29.50
29197;BME280;62796;42.654;23.316;2023-02-02T13:46:30;94356.94;;;10.71;28.92
29197;BME280;62796;42.654;23.316;2023-02-02T13:49:08;94358.84;;;10.59;29.49
29197;BME280;62796;42.654;23.316;2023-02-02T13:55:19;94366.31;;;10.79;29.28
29197;BME280;62796;42.654;23.316;2023-02-02T14:00:52;94352.09;;;10.97;29.75
29197;BME280;62796;42.654;23.316;2023-02-02T14:03:29;94349.44;;;10.77;31.30
29197;BME280;62796;42.654;23.316;2023-02-02T14:06:19;94367.47;;;10.67;33.04
29197;BME280;62796;42.654;23.316;2023-02-02T14:11:22;94368.69;;;10.60;35.31
29197;BME280;62796;42.654;23.316;2023-02-02T14:13:51;94365.22;;;9.99;36.73
29197;BME280;62796;42.654;23.316;2023-02-02T14:19:04;94352.47;;;8.92;39.21
29197;BME280;62796;42.654;23.316;2023-02-02T14:24:03;94350.03;;;8.35;40.01
29197;BME280;62796;42.654;23.316;2023-02-02T14:26:58;94353.19;;;8.43;39.93
29197;BME280;62796;42.654;23.316;2023-02-02T14:48:43;94444.22;;;8.04;48.51
29197;BME280;62796;42.654;23.316;2023-02-02T14:51:13;94459.34;;;7.94;50.43
29197;BME280;62796;42.654;23.316;2023-02-02T14:53:49;94475.41;;;7.72;53.73
29197;BME280;62796;42.654;23.316;2023-02-02T14:56:16;94491.44;;;7.50;55.25
29197;BME280;62796;42.654;23.316;2023-02-02T14:58:57;94501.97;;;7.18;56.58
29197;BME280;62796;42.654;23.316;2023-02-02T15:01:33;94528.63;;;7.12;57.09
29197;BME280;62796;42.654;23.316;2023-02-02T15:06:36;94562.63;;;6.64;58.24
29197;BME280;62796;42.654;23.316;2023-02-02T15:20:21;94596.00;;;5.90;60.11
29197;BME280;62796;42.654;23.316;2023-02-02T15:28:58;94633.47;;;5.75;61.11
29197;BME280;62796;42.654;23.316;2023-02-02T15:31:35;94619.53;;;5.91;60.84
29197;BME280;62796;42.654;23.316;2023-02-02T15:34:26;94642.22;;;5.82;61.12
29197;BME280;62796;42.654;23.316;2023-02-02T15:36:57;94624.50;;;5.83;60.90
29197;BME280;62796;42.654;23.316;2023-02-02T15:41:53;94632.31;;;5.54;60.48
29197;BME280;62796;42.654;23.316;2023-02-02T15:44:39;94632.31;;;5.54;60.88
29197;BME280;62796;42.654;23.316;2023-02-02T15:47:13;94637.22;;;5.59;60.65
29197;BME280;62796;42.654;23.316;2023-02-02T15:49:39;94641.38;;;5.64;60.44